Time;durP1;ratioP1;P1;durP2;ratioP2;P2;SDS_P1;SDS_P2;PMS_P1;PMS_P2;Temp;Humidity;BMP_temperature;BMP_pressure;BME280_temperature;BME280_humidity;BME280_pressure;Samples;Min_cycle;Max_cycle;Signal;HPM_P1;HPM_P2
2022/05/26 00:01:21;;;;;;;;;;;;;;;27.51;38.21;94775.41;4948869;28;9488;-60
2022/05/26 00:03:48;;;;;;;;;;;;;;;27.49;38.47;94772.41;4946119;29;7136;-60
2022/05/26 00:06:33;;;;;;;;;;;;;;;27.50;38.51;94774.66;4923474;29;7247;-60
2022/05/26 00:09:09;;;;;;;;;;;;;;;27.49;37.99;94773.16;4948978;29;7250;-60
2022/05/26 00:11:47;;;;;;;;;;;;;;;27.51;38.07;94772.66;4933963;29;8387;-59
2022/05/26 00:14:30;;;;;;;;;;;;;;;27.47;38.45;94763.91;4937154;29;7218;-60
2022/05/26 00:17:07;;;;;;;;;;;;;;;27.47;37.82;94761.13;4930635;29;7417;-60
2022/05/26 00:19:39;;;;;;;;;;;;;;;27.46;38.24;94763.13;4941763;29;9504;-60
2022/05/26 00:22:05;;;;;;;;;;;;;;;27.45;38.10;94763.63;4968590;28;7246;-60
2022/05/26 00:24:33;;;;;;;;;;;;;;;27.44;37.94;94773.97;4969216;28;9457;-60
2022/05/26 00:27:05;;;;;;;;;;;;;;;27.44;38.53;94762.91;5014271;28;7209;-60
2022/05/26 00:29:34;;;;;;;;;;;;;;;27.43;38.27;94761.41;5033324;28;9559;-60
2022/05/26 00:32:00;;;;;;;;;;;;;;;27.43;37.91;94769.69;5051508;28;9034;-60
2022/05/26 00:34:26;;;;;;;;;;;;;;;27.42;37.71;94761.91;5051649;28;7248;-60
2022/05/26 00:36:52;;;;;;;;;;;;;;;27.44;37.73;94771.19;5056283;28;9204;-60
2022/05/26 00:39:24;;;;;;;;;;;;;;;27.41;38.43;94765.94;5053916;28;8278;-60
2022/05/26 00:41:56;;;;;;;;;;;;;;;27.43;38.65;94772.44;5040683;28;9539;-60
2022/05/26 00:44:23;;;;;;;;;;;;;;;27.42;38.36;94770.97;5051569;28;9009;-60
2022/05/26 00:47:07;;;;;;;;;;;;;;;27.43;38.12;94771.69;5044811;28;9237;-60
2022/05/26 00:49:55;;;;;;;;;;;;;;;27.42;37.66;94765.44;5050925;28;7047;-60
2022/05/26 00:52:42;;;;;;;;;;;;;;;27.41;38.19;94768.69;5048412;28;9135;-60
2022/05/26 00:55:18;;;;;;;;;;;;;;;27.40;38.41;94767.97;5057598;28;7327;-60
2022/05/26 00:58:14;;;;;;;;;;;;;;;27.42;37.93;94773.72;5052396;28;7766;-60
2022/05/26 01:00:45;;;;;;;;;;;;;;;27.40;38.07;94765.19;5053606;28;7385;-60
2022/05/26 01:03:34;;;;;;;;;;;;;;;27.41;38.08;94768.69;5070685;28;7107;-60
2022/05/26 01:06:07;;;;;;;;;;;;;;;27.40;37.44;94762.44;5045873;28;7186;-60
2022/05/26 01:09:05;;;;;;;;;;;;;;;27.40;38.29;94765.19;5040230;28;7423;-60
2022/05/26 01:11:45;;;;;;;;;;;;;;;27.39;37.86;94763.69;5024862;28;9109;-60
2022/05/26 01:14:27;;;;;;;;;;;;;;;27.38;37.93;94764.22;5014147;28;7344;-60
2022/05/26 01:17:12;;;;;;;;;;;;;;;27.39;38.15;94760.16;5010958;28;9145;-60
2022/05/26 01:19:47;;;;;;;;;;;;;;;27.38;37.77;94758.69;5008215;28;7270;-60
2022/05/26 01:22:25;;;;;;;;;;;;;;;27.37;38.47;94760.69;5013648;28;7269;-60
2022/05/26 01:25:10;;;;;;;;;;;;;;;27.37;37.84;94757.19;5004801;28;9130;-60
2022/05/26 01:28:14;;;;;;;;;;;;;;;27.36;37.67;94761.94;5026242;28;7984;-60
2022/05/26 01:31:19;;;;;;;;;;;;;;;27.34;38.28;94761.69;5007838;28;7008;-60
2022/05/26 01:33:56;;;;;;;;;;;;;;;27.33;37.86;94767.72;5011784;28;7354;-60
2022/05/26 01:36:59;;;;;;;;;;;;;;;27.33;38.06;94771.25;5015173;28;9070;-60
2022/05/26 01:39:59;;;;;;;;;;;;;;;27.32;37.78;94775.25;5006542;28;7279;-60
2022/05/26 01:42:54;;;;;;;;;;;;;;;27.32;37.55;94769.72;4933916;28;8766;-60
2022/05/26 01:45:50;;;;;;;;;;;;;;;27.31;38.00;94773.78;4952257;28;7231;-60
2022/05/26 01:49:10;;;;;;;;;;;;;;;27.30;37.95;94771.50;4961534;28;9105;-60
2022/05/26 01:52:06;;;;;;;;;;;;;;;27.30;37.55;94772.25;4973279;28;7261;-60
2022/05/26 01:55:07;;;;;;;;;;;;;;;27.29;38.23;94773.53;4966361;28;7142;-60
2022/05/26 01:57:56;;;;;;;;;;;;;;;27.29;37.28;94772.78;4973470;28;7248;-60
2022/05/26 02:00:32;;;;;;;;;;;;;;;27.27;37.90;94765.03;4971211;28;9143;-60
2022/05/26 02:03:20;;;;;;;;;;;;;;;27.28;37.57;94763.75;4985622;28;9044;-60
2022/05/26 02:06:01;;;;;;;;;;;;;;;27.28;38.32;94766.50;4970634;28;9101;-60
2022/05/26 02:08:49;;;;;;;;;;;;;;;27.26;37.81;94760.75;4976082;28;7109;-60
2022/05/26 02:11:26;;;;;;;;;;;;;;;27.26;37.45;94760.75;4981111;28;8882;-60
2022/05/26 02:14:33;;;;;;;;;;;;;;;27.26;37.82;94757.97;4978711;28;7321;-59
2022/05/26 02:17:20;;;;;;;;;;;;;;;27.25;38.30;94756.47;4948501;28;7200;-60
2022/05/26 02:20:04;;;;;;;;;;;;;;;27.23;37.59;94753.47;4988269;28;8376;-60
2022/05/26 02:22:36;;;;;;;;;;;;;;;27.23;37.93;94759.00;4988731;28;9222;-60
2022/05/26 02:25:21;;;;;;;;;;;;;;;27.24;37.90;94749.47;4974277;28;8692;-60
2022/05/26 02:27:52;;;;;;;;;;;;;;;27.23;38.27;94756.22;4973064;28;7272;-60
2022/05/26 02:30:33;;;;;;;;;;;;;;;27.24;37.72;94759.75;4988703;28;7247;-60
2022/05/26 02:33:04;;;;;;;;;;;;;;;27.23;37.54;94759.00;4963049;28;7250;-60
2022/05/26 02:35:35;;;;;;;;;;;;;;;27.23;37.73;94759.00;4982685;28;7004;-60
2022/05/26 02:38:19;;;;;;;;;;;;;;;27.23;38.07;94755.50;4985865;28;7041;-60
2022/05/26 02:41:29;;;;;;;;;;;;;;;27.23;38.30;94759.00;4972243;28;7231;-60
2022/05/26 02:44:00;;;;;;;;;;;;;;;27.23;37.63;94756.22;4912277;29;7086;-60
2022/05/26 02:46:53;;;;;;;;;;;;;;;27.22;38.23;94763.03;4894883;29;8148;-60
2022/05/26 02:49:58;;;;;;;;;;;;;;;27.22;38.08;94765.78;4900773;29;7246;-60
2022/05/26 02:53:02;;;;;;;;;;;;;;;27.22;37.60;94762.28;4907415;28;7924;-59
2022/05/26 02:55:40;;;;;;;;;;;;;;;27.22;37.94;94767.81;4969000;28;7496;-60
2022/05/26 02:58:18;;;;;;;;;;;;;;;27.21;38.29;94760.78;4954832;28;7245;-59
2022/05/26 03:00:59;;;;;;;;;;;;;;;27.19;37.82;94758.53;4966792;28;9792;-60
2022/05/26 03:03:31;;;;;;;;;;;;;;;27.19;37.56;94766.81;4966034;28;7312;-60
2022/05/26 03:06:03;;;;;;;;;;;;;;;27.17;37.89;94760.28;4978783;28;9054;-60
2022/05/26 03:08:44;;;;;;;;;;;;;;;27.18;38.01;94767.34;4956799;28;9452;-60
2022/05/26 03:11:17;;;;;;;;;;;;;;;27.19;37.52;94774.34;4982968;28;7178;-60
2022/05/26 03:14:03;;;;;;;;;;;;;;;27.17;37.99;94774.09;4969071;28;9444;-59
2022/05/26 03:16:49;;;;;;;;;;;;;;;27.14;37.96;94775.91;4985158;28;7425;-60
2022/05/26 03:19:18;;;;;;;;;;;;;;;27.15;37.62;94782.91;4971751;28;6916;-60
2022/05/26 03:21:45;;;;;;;;;;;;;;;27.15;38.34;94791.19;5056856;28;8783;-60
2022/05/26 03:24:12;;;;;;;;;;;;;;;27.15;38.28;94784.91;5047831;28;8718;-60
2022/05/26 03:26:38;;;;;;;;;;;;;;;27.13;38.29;94802.00;5054636;28;9144;-60
2022/05/26 03:29:41;;;;;;;;;;;;;;;27.16;37.55;94797.47;5039357;28;7321;-60
2022/05/26 03:32:25;;;;;;;;;;;;;;;27.13;37.49;94790.97;4946477;28;7269;-60
2022/05/26 03:43:15;;;;;;;;;;;;;;;27.11;37.96;94804.53;4954664;28;7172;-60
2022/05/26 03:45:49;;;;;;;;;;;;;;;27.11;38.39;94804.53;4952488;28;8985;-60
2022/05/26 03:48:15;;;;;;;;;;;;;;;27.11;38.14;94803.78;4939191;28;8814;-60
2022/05/26 03:50:49;;;;;;;;;;;;;;;27.11;37.59;94801.75;4961286;28;7259;-60
2022/05/26 03:53:25;;;;;;;;;;;;;;;27.08;38.38;94805.53;4949774;28;7201;-60
2022/05/26 03:56:01;;;;;;;;;;;;;;;27.10;37.80;94811.28;4943737;28;7517;-60
2022/05/26 03:58:46;;;;;;;;;;;;;;;27.08;38.24;94805.53;4961235;28;7238;-60
2022/05/26 04:01:12;;;;;;;;;;;;;;;27.08;38.05;94804.81;4946870;28;7271;-60
2022/05/26 04:03:48;;;;;;;;;;;;;;;27.08;38.22;94805.53;4939116;29;7009;-60
2022/05/26 04:06:18;;;;;;;;;;;;;;;27.05;37.76;94806.56;4938649;28;7053;-59
2022/05/26 04:08:44;;;;;;;;;;;;;;;27.07;38.13;94817.09;5044813;28;7063;-60
2022/05/26 04:11:24;;;;;;;;;;;;;;;27.08;38.07;94824.13;5059028;28;7288;-60
2022/05/26 04:13:56;;;;;;;;;;;;;;;27.06;37.87;94821.88;5047967;28;7267;-60
2022/05/26 04:16:34;;;;;;;;;;;;;;;27.06;38.26;94821.09;5063800;28;7528;-60
2022/05/26 04:19:01;;;;;;;;;;;;;;;27.06;38.10;94830.16;5054167;28;7006;-60
2022/05/26 04:21:34;;;;;;;;;;;;;;;27.06;37.44;94826.63;5040681;28;7177;-60
2022/05/26 04:24:02;;;;;;;;;;;;;;;27.06;37.83;94830.16;5038120;28;7239;-60
2022/05/26 04:26:33;;;;;;;;;;;;;;;27.06;37.58;94832.91;5050219;28;7241;-60
2022/05/26 04:29:13;;;;;;;;;;;;;;;27.07;37.62;94841.94;5052929;28;7227;-60
2022/05/26 04:31:40;;;;;;;;;;;;;;;27.05;38.23;94836.94;5044933;28;8729;-60
2022/05/26 04:34:07;;;;;;;;;;;;;;;27.06;37.28;94840.44;5040282;28;7265;-60
2022/05/26 04:36:37;;;;;;;;;;;;;;;27.05;37.29;94848.00;5044760;28;7115;-59
2022/05/26 04:39:03;;;;;;;;;;;;;;;27.03;38.16;94844.22;5063071;28;7280;-60
2022/05/26 04:41:31;;;;;;;;;;;;;;;27.02;37.22;94854.53;5065469;28;7217;-60
2022/05/26 04:44:00;;;;;;;;;;;;;;;27.01;38.32;94839.22;5053402;28;6859;-59
2022/05/26 04:46:26;;;;;;;;;;;;;;;27.00;38.09;94845.25;5048844;28;7270;-60
2022/05/26 04:49:08;;;;;;;;;;;;;;;27.02;38.24;94851.75;5066274;28;7599;-59
2022/05/26 04:51:43;;;;;;;;;;;;;;;27.02;38.11;94851.00;5050041;28;7715;-60
2022/05/26 04:54:09;;;;;;;;;;;;;;;27.01;37.65;94861.31;5039084;28;7094;-60
2022/05/26 04:56:35;;;;;;;;;;;;;;;27.01;38.00;94858.56;5046934;28;9132;-59
2022/05/26 04:59:05;;;;;;;;;;;;;;;27.00;37.41;94859.81;5049401;28;7176;-60
2022/05/26 05:01:38;;;;;;;;;;;;;;;27.01;37.51;94866.84;5046500;28;7260;-60
2022/05/26 05:04:16;;;;;;;;;;;;;;;27.03;37.84;94874.59;5049296;28;9243;-60
2022/05/26 05:06:49;;;;;;;;;;;;;;;27.03;37.22;94864.31;5036472;28;9020;-60
2022/05/26 05:09:52;;;;;;;;;;;;;;;27.03;37.68;94871.84;5053243;28;7262;-60
2022/05/26 05:12:29;;;;;;;;;;;;;;;27.01;37.38;94869.59;4988330;28;7392;-60
2022/05/26 05:14:56;;;;;;;;;;;;;;;27.00;37.17;94878.38;4985187;28;7907;-60
2022/05/26 05:17:29;;;;;;;;;;;;;;;26.97;37.58;94876.63;5015108;28;9549;-59
2022/05/26 05:19:54;;;;;;;;;;;;;;;26.94;37.14;94883.94;4990108;28;7254;-59
2022/05/26 05:22:31;;;;;;;;;;;;;;;26.95;37.31;94887.44;5003303;28;9029;-60
2022/05/26 05:25:14;;;;;;;;;;;;;;;26.95;37.23;94881.91;5007451;28;7745;-60
2022/05/26 05:28:00;;;;;;;;;;;;;;;26.95;37.26;94882.66;4999976;28;9053;-59
2022/05/26 05:30:32;;;;;;;;;;;;;;;26.92;37.21;94878.88;5005200;28;9009;-60
2022/05/26 05:33:08;;;;;;;;;;;;;;;26.94;37.30;94886.69;4979577;28;8679;-59
2022/05/26 05:35:39;;;;;;;;;;;;;;;26.94;37.23;94894.22;5008167;28;7086;-59
2022/05/26 05:38:09;;;;;;;;;;;;;;;26.94;37.78;94888.69;5013538;28;8378;-59
2022/05/26 05:40:50;;;;;;;;;;;;;;;26.93;37.38;94890.69;4996375;28;7519;-59
2022/05/26 05:43:17;;;;;;;;;;;;;;;26.93;37.44;94893.44;5006284;28;7259;-59
2022/05/26 05:45:45;;;;;;;;;;;;;;;26.94;37.97;94891.44;5008983;28;7189;-59
2022/05/26 05:48:28;;;;;;;;;;;;;;;26.94;37.77;94894.97;5048499;28;7333;-59
2022/05/26 05:51:01;;;;;;;;;;;;;;;26.95;37.14;94898.47;5054138;28;7221;-60
2022/05/26 05:53:45;;;;;;;;;;;;;;;26.94;37.22;94902.50;5059225;28;9234;-60
2022/05/26 05:56:15;;;;;;;;;;;;;;;26.93;37.42;94898.97;5050236;28;7075;-59
2022/05/26 05:58:52;;;;;;;;;;;;;;;26.96;37.69;94899.97;5057890;28;9221;-60
2022/05/26 06:01:23;;;;;;;;;;;;;;;26.97;37.96;94907.00;5047476;28;9057;-60
2022/05/26 06:03:49;;;;;;;;;;;;;;;26.95;38.00;94899.22;5051521;28;7287;-60
2022/05/26 06:06:15;;;;;;;;;;;;;;;26.95;37.70;94899.22;5041568;28;8099;-60
2022/05/26 06:08:44;;;;;;;;;;;;;;;26.94;37.40;94905.25;5046629;28;9236;-60
2022/05/26 06:11:10;;;;;;;;;;;;;;;26.92;37.94;94905.75;5055196;28;9365;-60
2022/05/26 06:13:36;;;;;;;;;;;;;;;26.93;37.61;94907.25;5053701;28;8798;-59
2022/05/26 06:16:02;;;;;;;;;;;;;;;26.95;38.01;94909.53;5040025;28;7138;-60
2022/05/26 06:18:34;;;;;;;;;;;;;;;26.95;37.74;94915.03;5043868;28;7232;-60
2022/05/26 06:21:08;;;;;;;;;;;;;;;26.93;38.33;94910.00;5049485;28;7343;-60
2022/05/26 06:23:34;;;;;;;;;;;;;;;26.95;38.29;94907.50;5046638;28;6852;-60
2022/05/26 06:26:00;;;;;;;;;;;;;;;26.97;37.61;94913.25;5035618;28;9101;-60
2022/05/26 06:31:12;;;;;;;;;;;;;;;26.92;37.83;94903.72;5058614;28;6991;-60
2022/05/26 06:39:16;;;;;;;;;;;;;;;26.97;37.83;94921.53;5057820;28;8724;-60
2022/05/26 06:44:31;;;;;;;;;;;;;;;27.00;37.66;94923.28;5056664;28;8399;-60
2022/05/26 06:46:57;;;;;;;;;;;;;;;27.01;37.70;94924.06;5060175;28;7078;-60
2022/05/26 06:49:29;;;;;;;;;;;;;;;26.99;37.53;94915.53;5057694;28;9668;-60
2022/05/26 06:52:09;;;;;;;;;;;;;;;26.97;37.62;94918.06;5035627;28;9326;-60
2022/05/26 06:54:41;;;;;;;;;;;;;;;26.93;37.51;94918.28;5049202;28;9081;-60
2022/05/26 06:57:18;;;;;;;;;;;;;;;26.92;37.84;94922.31;5055794;28;7276;-60
2022/05/26 07:00:08;;;;;;;;;;;;;;;26.89;37.65;94921.31;5043386;28;9011;-60
2022/05/26 07:02:36;;;;;;;;;;;;;;;26.88;37.57;94921.84;5048279;28;6995;-60
2022/05/26 07:05:09;;;;;;;;;;;;;;;26.86;37.48;94916.09;5047432;28;7232;-60
2022/05/26 07:08:28;;;;;;;;;;;;;;;26.88;37.36;94924.59;5050211;28;7316;-60
2022/05/26 07:11:05;;;;;;;;;;;;;;;26.88;37.65;94927.38;5064235;28;7603;-60
2022/05/26 07:13:31;;;;;;;;;;;;;;;26.86;37.70;94927.84;5041491;28;9024;-60
2022/05/26 07:16:07;;;;;;;;;;;;;;;26.87;37.44;94931.38;5048959;28;9027;-60
2022/05/26 07:18:34;;;;;;;;;;;;;;;26.88;37.55;94932.88;5041218;28;7387;-60
2022/05/26 07:21:04;;;;;;;;;;;;;;;26.86;36.37;94929.88;5062689;28;7287;-60
2022/05/26 07:23:32;;;;;;;;;;;;;;;26.91;36.42;94931.84;5052047;28;9078;-60
2022/05/26 07:25:58;;;;;;;;;;;;;;;26.89;37.37;94931.63;5044046;28;7184;-60
2022/05/26 07:28:24;;;;;;;;;;;;;;;26.77;36.68;94932.91;5044376;28;8685;-59
2022/05/26 07:30:52;;;;;;;;;;;;;;;26.86;37.15;94935.41;5035199;28;9054;-60
2022/05/26 07:33:25;;;;;;;;;;;;;;;26.87;36.70;94948.69;5047668;28;7044;-60
2022/05/26 07:35:51;;;;;;;;;;;;;;;26.88;36.20;94939.13;5035300;28;8811;-60
2022/05/26 07:41:24;;;;;;;;;;;;;;;26.88;36.34;94943.94;5053212;28;6976;-60
2022/05/26 07:43:58;;;;;;;;;;;;;;;26.87;36.69;94936.88;5059055;28;8781;-60
2022/05/26 07:46:26;;;;;;;;;;;;;;;26.86;36.81;94932.66;5045547;28;7255;-59
2022/05/26 07:48:54;;;;;;;;;;;;;;;26.86;36.72;94940.94;5048651;28;9530;-59
2022/05/26 07:51:30;;;;;;;;;;;;;;;26.85;36.58;94947.69;5042120;28;9040;-60
2022/05/26 07:54:00;;;;;;;;;;;;;;;26.87;35.98;94936.88;5034552;28;6996;-60
2022/05/26 07:56:39;;;;;;;;;;;;;;;26.87;36.37;94936.88;5038834;28;9324;-60
2022/05/26 07:59:31;;;;;;;;;;;;;;;26.87;36.88;94945.16;5060654;28;7211;-60
2022/05/26 08:01:59;;;;;;;;;;;;;;;26.86;36.73;94946.44;5043816;28;9201;-60
2022/05/26 08:04:36;;;;;;;;;;;;;;;26.90;36.70;94944.16;5046195;28;7652;-60
2022/05/26 08:07:15;;;;;;;;;;;;;;;26.93;37.37;94951.41;5039643;28;6945;-60
2022/05/26 08:09:43;;;;;;;;;;;;;;;26.93;36.67;94943.13;5039869;28;9078;-60
2022/05/26 08:12:14;;;;;;;;;;;;;;;26.91;36.56;94940.13;5044188;28;9328;-60
2022/05/26 08:14:47;;;;;;;;;;;;;;;26.94;37.05;94944.66;5053834;28;7167;-60
2022/05/26 08:17:23;;;;;;;;;;;;;;;26.90;36.55;94941.41;5056088;28;7056;-60
2022/05/26 08:19:57;;;;;;;;;;;;;;;26.86;37.12;94938.88;5054349;28;8909;-60
2022/05/26 08:22:25;;;;;;;;;;;;;;;26.89;37.19;94950.94;5040608;28;9402;-59
2022/05/26 08:24:52;;;;;;;;;;;;;;;26.88;37.24;94946.69;5041920;28;9091;-60
2022/05/26 08:27:21;;;;;;;;;;;;;;;26.87;37.71;94945.94;5048282;28;6985;-60
2022/05/26 08:29:49;;;;;;;;;;;;;;;26.87;37.34;94947.94;5060948;28;7230;-60
2022/05/26 08:32:43;;;;;;;;;;;;;;;26.87;38.13;94953.44;5045501;28;9467;-59
2022/05/26 08:35:24;;;;;;;;;;;;;;;26.89;37.33;94956.47;4938651;29;8847;-60
2022/05/26 08:38:00;;;;;;;;;;;;;;;26.90;37.52;94952.44;4947250;29;8801;-60
2022/05/26 08:40:51;;;;;;;;;;;;;;;27.06;37.08;94957.16;4932371;29;6977;-60
2022/05/26 08:43:25;;;;;;;;;;;;;;;27.13;37.52;94945.59;4929456;29;8417;-60
2022/05/26 08:45:54;;;;;;;;;;;;;;;27.18;37.00;94953.13;4936639;29;7031;-60
2022/05/26 08:48:58;;;;;;;;;;;;;;;27.23;37.16;94952.31;4945513;29;9053;-60
2022/05/26 08:51:34;;;;;;;;;;;;;;;27.24;37.42;94959.34;4906552;29;9120;-60
2022/05/26 08:54:27;;;;;;;;;;;;;;;27.20;36.73;94953.34;4889468;29;7331;-59
2022/05/26 08:56:57;;;;;;;;;;;;;;;27.19;36.50;94951.06;4905919;29;7074;-59
2022/05/26 08:59:35;;;;;;;;;;;;;;;27.18;36.64;94955.88;4912743;29;7108;-59
2022/05/26 09:02:03;;;;;;;;;;;;;;;27.15;37.11;94959.63;4907290;29;9109;-59
2022/05/26 09:04:29;;;;;;;;;;;;;;;27.13;37.20;94953.13;4909309;29;7376;-59
2022/05/26 09:12:57;;;;;;;;;;;;;;;27.11;37.12;94956.41;4976305;28;8060;-59
2022/05/26 09:15:28;;;;;;;;;;;;;;;27.10;37.23;94968.69;5001030;28;7234;-60
2022/05/26 09:17:55;;;;;;;;;;;;;;;27.10;36.70;94965.94;5008528;28;9096;-59
2022/05/26 09:20:39;;;;;;;;;;;;;;;27.10;36.70;94965.94;5005634;28;7237;-60
2022/05/26 09:23:24;;;;;;;;;;;;;;;27.11;37.17;94961.16;4993084;28;9147;-59
2022/05/26 09:26:02;;;;;;;;;;;;;;;27.09;36.48;94961.69;5011236;28;7004;-59
2022/05/26 09:29:06;;;;;;;;;;;;;;;27.09;36.66;94963.69;5030978;28;9184;-59
2022/05/26 09:31:35;;;;;;;;;;;;;;;27.08;37.14;94957.41;5060530;28;8306;-59
2022/05/26 09:34:33;;;;;;;;;;;;;;;27.10;36.96;94962.44;5039917;28;7058;-59
2022/05/26 09:37:02;;;;;;;;;;;;;;;27.09;41.12;94953.38;5018611;28;6999;-59
2022/05/26 09:39:42;;;;;;;;;;;;;;;27.12;40.25;94957.88;5011113;28;7078;-59
2022/05/26 09:42:28;;;;;;;;;;;;;;;27.15;39.13;94956.88;5025457;28;9172;-59
2022/05/26 09:45:06;;;;;;;;;;;;;;;27.15;38.54;94970.69;5019533;28;8308;-59
2022/05/26 09:47:55;;;;;;;;;;;;;;;27.15;38.09;94965.16;5007964;28;7278;-59
2022/05/26 09:50:41;;;;;;;;;;;;;;;27.18;37.80;94966.91;5005782;28;6983;-60
2022/05/26 09:53:30;;;;;;;;;;;;;;;27.17;37.91;94970.94;5019212;28;7255;-60
2022/05/26 09:55:55;;;;;;;;;;;;;;;27.14;37.74;94969.19;5014852;28;7640;-59
2022/05/26 09:58:43;;;;;;;;;;;;;;;27.14;38.35;94971.97;5002013;28;9096;-60
2022/05/26 10:01:27;;;;;;;;;;;;;;;27.16;38.41;94963.16;5006897;28;9465;-59
2022/05/26 10:04:46;;;;;;;;;;;;;;;27.15;37.89;94962.41;5012313;28;7194;-59
2022/05/26 10:07:57;;;;;;;;;;;;;;;27.15;37.64;94970.69;4950647;28;6931;-60
2022/05/26 10:10:42;;;;;;;;;;;;;;;27.15;37.51;94964.41;4888625;29;7225;-59
2022/05/26 10:13:20;;;;;;;;;;;;;;;27.14;37.57;94963.69;4908494;29;7244;-60
2022/05/26 10:16:42;;;;;;;;;;;;;;;27.16;37.87;94980.50;4927194;28;9063;-60
2022/05/26 10:19:20;;;;;;;;;;;;;;;27.15;37.94;94967.94;4849656;29;9073;-60
2022/05/26 10:22:00;;;;;;;;;;;;;;;27.17;37.19;94973.69;4862847;29;7327;-61
2022/05/26 10:25:04;;;;;;;;;;;;;;;27.19;37.95;94962.13;4854992;29;9119;-60
2022/05/26 10:27:49;;;;;;;;;;;;;;;27.18;37.94;94964.16;4859287;29;9011;-60
2022/05/26 10:30:49;;;;;;;;;;;;;;;27.18;37.31;94961.41;4846397;29;9100;-60
2022/05/26 10:33:41;;;;;;;;;;;;;;;27.19;37.52;94960.13;4833851;29;7638;-60
2022/05/26 10:36:49;;;;;;;;;;;;;;;27.20;37.85;94961.63;5035788;28;7068;-59
2022/05/26 10:39:38;;;;;;;;;;;;;;;27.21;37.16;94957.59;5028724;28;7460;-59
2022/05/26 10:42:23;;;;;;;;;;;;;;;27.23;37.34;94957.13;5005574;28;7291;-59
2022/05/26 10:45:01;;;;;;;;;;;;;;;27.22;37.50;94950.84;5008816;28;7097;-59
2022/05/26 10:47:39;;;;;;;;;;;;;;;27.22;37.74;94948.06;5013464;28;7271;-59
2022/05/26 10:50:36;;;;;;;;;;;;;;;27.23;37.61;94954.34;5007359;28;7266;-59
2022/05/26 10:53:06;;;;;;;;;;;;;;;27.23;37.31;94954.34;5012216;28;7888;-59
2022/05/26 10:55:49;;;;;;;;;;;;;;;27.23;36.69;94955.09;5012767;28;8250;-59
2022/05/26 10:58:26;;;;;;;;;;;;;;;27.24;36.98;94956.59;5007965;28;9405;-59
2022/05/26 11:01:11;;;;;;;;;;;;;;;27.24;37.15;94953.84;5028905;28;9063;-59
2022/05/26 11:03:53;;;;;;;;;;;;;;;27.24;37.38;94955.84;5033208;28;7101;-59
2022/05/26 11:06:34;;;;;;;;;;;;;;;27.25;37.34;94966.38;5009981;28;6996;-59
2022/05/26 11:09:21;;;;;;;;;;;;;;;27.25;36.48;94960.84;5016050;28;7250;-59
2022/05/26 11:11:58;;;;;;;;;;;;;;;27.25;36.66;94960.84;5016820;28;7721;-59
2022/05/26 11:18:18;;;;;;;;;;;;;;;27.27;36.48;94963.13;5021180;28;8421;-59
2022/05/26 11:20:57;;;;;;;;;;;;;;;27.26;37.11;94962.38;4979796;28;8331;-59
2022/05/26 11:23:28;;;;;;;;;;;;;;;27.27;36.82;94954.84;4962643;28;7166;-59
2022/05/26 11:26:00;;;;;;;;;;;;;;;27.28;36.93;94954.31;4973586;28;7000;-59
2022/05/26 11:29:00;;;;;;;;;;;;;;;27.30;36.97;94957.31;4960270;28;9353;-59
2022/05/26 11:37:31;;;;;;;;;;;;;;;27.33;36.84;94953.56;4973934;28;9139;-59
2022/05/26 11:40:09;;;;;;;;;;;;;;;27.33;37.15;94939.75;4960701;28;8932;-59
2022/05/26 11:43:01;;;;;;;;;;;;;;;27.32;37.02;94948.50;4963740;28;9559;-59
2022/05/26 11:45:35;;;;;;;;;;;;;;;27.32;36.55;94949.28;4956654;28;9645;-59
2022/05/26 11:48:31;;;;;;;;;;;;;;;27.33;36.67;94945.25;4926406;28;8010;-59
2022/05/26 11:51:12;;;;;;;;;;;;;;;27.33;36.61;94948.03;4872966;29;9104;-59
2022/05/26 11:53:50;;;;;;;;;;;;;;;27.33;36.64;94942.50;4875064;29;8949;-59
2022/05/26 11:56:27;;;;;;;;;;;;;;;27.34;36.84;94946.75;4877103;29;7091;-59
2022/05/26 11:59:20;;;;;;;;;;;;;;;27.35;36.74;94947.50;4888957;29;7223;-59
2022/05/26 12:01:48;;;;;;;;;;;;;;;27.36;36.70;94947.03;4894713;29;7289;-59
2022/05/26 12:04:25;;;;;;;;;;;;;;;27.38;36.09;94938.97;4890669;29;9262;-60
2022/05/26 12:07:14;;;;;;;;;;;;;;;27.40;37.06;94933.72;4890833;29;9163;-60
2022/05/26 12:09:53;;;;;;;;;;;;;;;27.39;36.41;94931.44;4891354;29;9406;-60
2022/05/26 12:12:22;;;;;;;;;;;;;;;27.38;36.22;94929.97;4887911;29;8787;-60
2022/05/26 12:15:20;;;;;;;;;;;;;;;27.40;37.04;94928.19;4906976;29;9153;-60
2022/05/26 12:18:21;;;;;;;;;;;;;;;27.43;36.76;94929.91;4893734;29;9091;-60
2022/05/26 12:21:11;;;;;;;;;;;;;;;27.45;37.13;94932.91;4893270;29;9001;-61
2022/05/26 12:23:45;;;;;;;;;;;;;;;27.45;37.67;94938.44;4905634;29;9404;-60
2022/05/26 12:26:47;;;;;;;;;;;;;;;27.48;37.26;94933.91;4908245;29;7021;-60
2022/05/26 12:29:59;;;;;;;;;;;;;;;27.50;37.14;94925.88;4997383;28;9251;-60
2022/05/26 12:32:30;;;;;;;;;;;;;;;27.51;36.92;94928.09;4948822;28;9499;-60
2022/05/26 12:34:59;;;;;;;;;;;;;;;27.51;37.19;94921.84;4960651;28;7232;-60
2022/05/26 12:37:48;;;;;;;;;;;;;;;27.52;36.94;94921.34;4957898;28;7246;-60
2022/05/26 12:40:41;;;;;;;;;;;;;;;27.54;37.52;94926.34;4894538;29;9079;-60
2022/05/26 12:43:21;;;;;;;;;;;;;;;27.56;37.50;94924.56;4894094;29;9048;-60
2022/05/26 12:46:15;;;;;;;;;;;;;;;27.55;36.98;94920.31;4893970;29;8471;-61
2022/05/26 12:49:01;;;;;;;;;;;;;;;27.58;37.30;94926.81;4895432;29;7716;-60
2022/05/26 12:51:39;;;;;;;;;;;;;;;27.58;37.55;94927.56;4891670;29;7153;-60
2022/05/26 12:54:19;;;;;;;;;;;;;;;27.60;37.12;94916.75;4873649;29;6993;-60
2022/05/26 12:56:55;;;;;;;;;;;;;;;27.62;37.01;94913.50;4873219;29;7168;-61
2022/05/26 12:59:27;;;;;;;;;;;;;;;27.61;36.72;94918.28;4870043;29;8964;-60
2022/05/26 13:02:02;;;;;;;;;;;;;;;27.66;37.15;94915.97;4881939;29;6856;-60
2022/05/26 13:04:35;;;;;;;;;;;;;;;27.66;36.97;94913.97;4888416;29;7078;-60
2022/05/26 13:07:13;;;;;;;;;;;;;;;27.69;36.86;94912.19;4889284;29;9322;-60
2022/05/26 13:09:53;;;;;;;;;;;;;;;27.69;36.76;94903.91;4929435;28;7219;-60
2022/05/26 13:12:25;;;;;;;;;;;;;;;27.72;37.15;94905.63;4933530;28;7262;-60
2022/05/26 13:15:00;;;;;;;;;;;;;;;27.70;36.64;94902.63;4937169;28;7444;-60
2022/05/26 13:17:29;;;;;;;;;;;;;;;27.72;36.69;94902.88;4975712;28;7519;-60
2022/05/26 13:19:56;;;;;;;;;;;;;;;27.73;36.56;94901.63;5005922;28;7828;-60
2022/05/26 13:22:32;;;;;;;;;;;;;;;27.73;36.90;94905.13;5001278;28;9227;-60
2022/05/26 13:25:04;;;;;;;;;;;;;;;27.75;36.80;94899.09;5004251;28;7019;-60
2022/05/26 13:27:48;;;;;;;;;;;;;;;27.73;36.09;94898.84;4994865;28;9084;-60
2022/05/26 13:33:09;;;;;;;;;;;;;;;27.76;35.75;94906.09;4994221;28;8819;-60
2022/05/26 13:35:47;;;;;;;;;;;;;;;27.77;36.60;94888.28;4999467;28;7012;-60
2022/05/26 13:38:26;;;;;;;;;;;;;;;27.77;36.23;94900.09;5000348;28;7513;-60
2022/05/26 13:40:55;;;;;;;;;;;;;;;27.78;35.93;94889.75;4998066;28;7029;-60
2022/05/26 13:44:04;;;;;;;;;;;;;;;27.80;35.61;94890.00;4994898;28;8842;-60
2022/05/26 13:46:49;;;;;;;;;;;;;;;27.81;35.64;94888.75;5015216;28;7235;-60
2022/05/26 13:49:32;;;;;;;;;;;;;;;27.82;35.75;94888.22;4998557;28;9445;-60
2022/05/26 13:52:21;;;;;;;;;;;;;;;27.82;35.54;94893.03;5007822;28;7248;-60
2022/05/26 13:54:58;;;;;;;;;;;;;;;27.81;34.88;94885.97;5006463;28;9726;-60
2022/05/26 13:57:39;;;;;;;;;;;;;;;27.80;34.91;94876.16;5004555;28;9564;-60
2022/05/26 14:00:19;;;;;;;;;;;;;;;27.84;35.22;94879.44;4999754;28;7002;-60
2022/05/26 14:02:57;;;;;;;;;;;;;;;27.84;35.12;94877.41;5005414;28;7137;-60
2022/05/26 14:05:30;;;;;;;;;;;;;;;27.84;35.10;94876.66;4999221;28;7861;-60
2022/05/26 14:08:10;;;;;;;;;;;;;;;27.84;34.76;94865.59;5007979;28;8411;-60
2022/05/26 14:10:46;;;;;;;;;;;;;;;27.86;35.32;94871.38;5004662;28;9362;-60
2022/05/26 14:13:23;;;;;;;;;;;;;;;27.89;34.79;94870.31;4998409;28;7078;-60
2022/05/26 14:16:05;;;;;;;;;;;;;;;27.87;35.08;94862.56;4994388;28;7547;-60
2022/05/26 14:18:44;;;;;;;;;;;;;;;27.88;34.75;94864.06;5018847;28;7046;-60
2022/05/26 14:21:30;;;;;;;;;;;;;;;27.89;34.69;94868.31;4997079;28;7369;-60
2022/05/26 14:24:24;;;;;;;;;;;;;;;27.89;35.19;94860.03;5003980;28;7205;-60
2022/05/26 14:27:03;;;;;;;;;;;;;;;27.90;34.95;94860.78;5007097;28;7333;-60
2022/05/26 14:29:36;;;;;;;;;;;;;;;27.89;34.51;94860.03;4998518;28;8930;-60
2022/05/26 14:32:17;;;;;;;;;;;;;;;27.93;34.55;94854.19;4999842;28;8014;-60
2022/05/26 14:34:53;;;;;;;;;;;;;;;27.92;35.28;94859.00;5009780;28;7277;-60
2022/05/26 14:37:21;;;;;;;;;;;;;;;27.91;34.52;94856.72;5005594;28;7294;-60
2022/05/26 14:39:50;;;;;;;;;;;;;;;27.95;34.45;94855.19;5015510;28;9334;-60